createdAt,value
2017-10-18T00:01:11.355Z,9.70
2017-10-18T00:03:38.990Z,10.03
2017-10-18T00:06:06.570Z,9.77
2017-10-18T00:08:34.287Z,11.03
2017-10-18T00:11:01.929Z,9.40
2017-10-18T00:13:29.607Z,9.60
2017-10-18T00:15:58.296Z,9.60
2017-10-18T00:18:25.977Z,11.40
2017-10-18T00:20:53.614Z,10.33
2017-10-18T00:23:21.258Z,10.67
2017-10-18T00:25:48.943Z,9.17
2017-10-18T00:28:16.583Z,8.13
2017-10-18T00:30:44.251Z,8.83
2017-10-18T00:33:11.893Z,9.30
2017-10-18T00:35:39.575Z,9.10
2017-10-18T00:38:07.223Z,9.73
2017-10-18T00:40:34.851Z,9.70
2017-10-18T00:43:02.506Z,9.80
2017-10-18T00:45:30.190Z,8.80
2017-10-18T00:47:57.802Z,9.10
2017-10-18T00:50:25.462Z,11.10
2017-10-18T00:52:53.071Z,10.40
2017-10-18T00:55:20.770Z,10.10
2017-10-18T00:57:48.422Z,11.00
2017-10-18T01:00:16.089Z,9.80
2017-10-18T01:02:43.738Z,12.07
2017-10-18T01:05:11.426Z,10.90
2017-10-18T01:07:39.057Z,9.53
2017-10-18T01:10:06.748Z,10.90
2017-10-18T01:12:34.394Z,12.30
2017-10-18T01:15:02.076Z,11.93
2017-10-18T01:17:30.266Z,10.83
2017-10-18T01:19:57.961Z,10.10
2017-10-18T01:22:25.604Z,10.80
2017-10-18T01:24:53.241Z,9.33
2017-10-18T01:27:20.947Z,12.00
2017-10-18T01:29:48.590Z,12.90
2017-10-18T01:32:16.275Z,11.10
2017-10-18T01:34:43.857Z,10.47
2017-10-18T01:37:12.542Z,9.67
2017-10-18T01:39:40.203Z,9.93
2017-10-18T01:42:07.820Z,9.50
2017-10-18T01:44:35.470Z,9.90
2017-10-18T01:47:03.139Z,8.40
2017-10-18T01:49:30.781Z,9.27
2017-10-18T01:51:58.453Z,10.90
2017-10-18T01:54:26.042Z,12.97
2017-10-18T01:56:53.717Z,12.00
2017-10-18T01:59:21.354Z,11.13
2017-10-18T02:01:49.021Z,12.30
2017-10-18T02:04:16.660Z,10.17
2017-10-18T02:06:44.337Z,10.27
2017-10-18T02:09:12.145Z,8.07
2017-10-18T02:11:39.760Z,9.00
2017-10-18T02:14:07.337Z,8.30
2017-10-18T02:16:35.015Z,8.90
2017-10-18T02:19:02.688Z,8.80
2017-10-18T02:21:30.273Z,7.60
2017-10-18T02:23:57.946Z,8.43
2017-10-18T02:26:25.582Z,7.77
2017-10-18T02:28:53.250Z,7.77
2017-10-18T02:31:20.891Z,7.80
2017-10-18T02:33:48.597Z,7.67
2017-10-18T02:36:16.252Z,7.50
2017-10-18T02:38:43.918Z,7.80
2017-10-18T02:41:11.587Z,9.00
2017-10-18T02:43:39.275Z,7.93
2017-10-18T02:46:06.918Z,11.70
2017-10-18T02:48:34.601Z,8.63
2017-10-18T02:51:02.191Z,8.77
2017-10-18T02:53:29.866Z,10.17
2017-10-18T02:55:57.498Z,8.13
2017-10-18T02:58:25.173Z,8.97
2017-10-18T03:00:52.805Z,9.77
2017-10-18T03:03:20.489Z,9.23
2017-10-18T03:05:48.122Z,9.53
2017-10-18T03:08:15.846Z,7.23
2017-10-18T03:10:43.415Z,9.50
2017-10-18T03:13:11.045Z,9.10
2017-10-18T03:15:38.715Z,9.20
2017-10-18T03:18:07.247Z,9.67
2017-10-18T03:20:34.857Z,8.80
2017-10-18T03:23:02.527Z,9.83
2017-10-18T03:25:30.247Z,9.60
2017-10-18T03:27:57.898Z,10.17
2017-10-18T03:30:25.594Z,9.40
2017-10-18T03:32:53.184Z,10.13
2017-10-18T03:35:20.866Z,8.67
2017-10-18T03:37:48.452Z,8.43
2017-10-18T03:40:16.151Z,9.43
2017-10-18T03:42:43.805Z,9.73
2017-10-18T03:45:11.502Z,9.07
2017-10-18T03:47:39.145Z,9.27
2017-10-18T03:50:06.830Z,8.67
2017-10-18T03:52:34.490Z,8.10
2017-10-18T03:55:02.097Z,9.30
2017-10-18T03:57:29.796Z,8.30
2017-10-18T03:59:57.452Z,9.90
2017-10-18T04:02:25.132Z,9.60
2017-10-18T04:04:52.778Z,8.23
2017-10-18T04:07:20.448Z,8.50
2017-10-18T04:09:48.079Z,8.07
2017-10-18T04:12:15.691Z,8.53
2017-10-18T04:14:43.334Z,8.50
2017-10-18T04:17:11.043Z,9.23
2017-10-18T04:19:38.692Z,9.40
2017-10-18T04:22:06.377Z,8.30
2017-10-18T04:24:34.067Z,8.43
2017-10-18T04:27:01.771Z,9.40
2017-10-18T04:29:29.338Z,8.63
2017-10-18T04:31:57.006Z,8.60
2017-10-18T04:34:24.665Z,9.50
2017-10-18T04:36:52.353Z,9.43
2017-10-18T04:39:19.993Z,9.10
2017-10-18T04:41:47.639Z,8.30
2017-10-18T04:44:15.238Z,9.10
2017-10-18T04:46:42.855Z,7.60
2017-10-18T04:49:10.448Z,7.93
2017-10-18T04:51:38.080Z,8.13
2017-10-18T04:54:05.671Z,9.50
2017-10-18T04:56:33.245Z,9.30
2017-10-18T04:59:00.870Z,8.53
2017-10-18T05:01:28.461Z,8.67
2017-10-18T05:03:56.075Z,7.37
2017-10-18T05:06:23.710Z,7.37
2017-10-18T05:08:51.362Z,8.47
2017-10-18T05:11:18.960Z,8.70
2017-10-18T05:13:46.565Z,8.60
2017-10-18T05:16:14.150Z,8.00
2017-10-18T05:18:41.772Z,9.17
2017-10-18T05:21:09.361Z,8.83
2017-10-18T05:23:37.002Z,8.13
2017-10-18T05:26:04.626Z,8.43
2017-10-18T05:28:32.254Z,8.20
2017-10-18T05:30:59.872Z,10.60
2017-10-18T05:33:27.499Z,8.80
2017-10-18T05:35:55.080Z,7.27
2017-10-18T05:38:22.687Z,8.10
2017-10-18T05:40:50.292Z,8.40
2017-10-18T05:43:17.929Z,8.47
2017-10-18T05:45:45.509Z,9.50
2017-10-18T05:48:13.126Z,7.50
2017-10-18T05:50:40.715Z,8.70
2017-10-18T05:53:08.302Z,8.40
2017-10-18T05:55:35.919Z,7.87
2017-10-18T05:58:04.542Z,9.13
2017-10-18T06:00:32.163Z,9.17
2017-10-18T06:02:59.761Z,8.97
2017-10-18T06:05:27.383Z,7.60
2017-10-18T06:07:54.977Z,7.93
2017-10-18T06:10:22.585Z,8.13
2017-10-18T06:12:50.232Z,7.73
2017-10-18T06:15:17.906Z,8.60
2017-10-18T06:17:46.509Z,8.20
2017-10-18T06:20:14.180Z,8.90
2017-10-18T06:22:41.838Z,7.40
2017-10-18T06:25:09.504Z,9.03
2017-10-18T06:27:37.149Z,7.63
2017-10-18T06:30:04.842Z,7.60
2017-10-18T06:32:32.514Z,8.53
2017-10-18T06:35:00.207Z,8.23
2017-10-18T06:37:27.864Z,8.73
2017-10-18T06:39:55.583Z,7.90
2017-10-18T06:42:23.225Z,7.90
2017-10-18T06:44:50.914Z,6.87
2017-10-18T06:47:18.570Z,7.33
2017-10-18T06:49:46.257Z,7.20
2017-10-18T06:52:13.904Z,8.10
2017-10-18T06:54:41.540Z,8.10
2017-10-18T06:57:09.227Z,7.90
2017-10-18T06:59:36.871Z,8.67
2017-10-18T07:02:04.584Z,8.20
2017-10-18T07:04:32.244Z,8.20
2017-10-18T07:06:59.950Z,8.67
2017-10-18T07:09:27.617Z,8.57
2017-10-18T07:11:55.292Z,9.90
2017-10-18T07:14:22.954Z,9.00
2017-10-18T07:16:51.642Z,8.73
2017-10-18T07:19:19.289Z,8.50
2017-10-18T07:21:46.970Z,8.40
2017-10-18T07:24:14.623Z,8.30
2017-10-18T07:26:42.304Z,8.23
2017-10-18T07:29:09.962Z,7.97
2017-10-18T07:31:37.635Z,9.07
2017-10-18T07:34:05.284Z,9.10
2017-10-18T07:36:32.987Z,9.33
2017-10-18T07:39:00.662Z,8.97
2017-10-18T07:41:28.473Z,9.90
2017-10-18T07:43:56.132Z,8.83
2017-10-18T07:46:23.806Z,9.27
2017-10-18T07:48:51.438Z,9.50
2017-10-18T07:51:19.131Z,9.27
2017-10-18T07:53:46.793Z,9.00
2017-10-18T07:56:14.439Z,8.93
2017-10-18T07:58:43.001Z,9.07
2017-10-18T08:01:10.642Z,9.97
2017-10-18T08:03:38.331Z,8.73
2017-10-18T08:06:05.951Z,8.63
2017-10-18T08:08:33.628Z,8.97
2017-10-18T08:11:01.284Z,9.80
2017-10-18T08:13:28.971Z,10.47
2017-10-18T08:15:56.640Z,9.70
2017-10-18T08:18:24.322Z,9.00
2017-10-18T08:20:51.976Z,9.53
2017-10-18T08:23:19.667Z,10.77
2017-10-18T08:25:47.310Z,10.23
2017-10-18T08:28:14.994Z,9.90
2017-10-18T08:30:42.647Z,11.40
2017-10-18T08:33:10.339Z,10.50
2017-10-18T08:35:37.986Z,9.37
2017-10-18T08:38:05.682Z,9.47
2017-10-18T08:40:33.335Z,9.73
2017-10-18T08:43:01.052Z,9.93
2017-10-18T08:45:28.702Z,9.30
2017-10-18T08:47:56.394Z,9.70
2017-10-18T08:50:24.048Z,9.53
2017-10-18T08:52:51.787Z,9.13
2017-10-18T08:55:19.450Z,10.47
2017-10-18T08:57:47.115Z,9.80
2017-10-18T09:00:14.800Z,10.60
2017-10-18T09:02:42.461Z,9.40
2017-10-18T09:05:10.195Z,10.13
2017-10-18T09:07:37.907Z,10.70
2017-10-18T09:10:05.587Z,9.47
2017-10-18T09:12:33.235Z,10.27
2017-10-18T09:15:01.074Z,9.77
2017-10-18T09:17:28.766Z,10.60
2017-10-18T09:19:56.485Z,10.00
2017-10-18T09:22:24.138Z,10.57
2017-10-18T09:24:51.827Z,10.57
2017-10-18T09:27:19.491Z,12.70
2017-10-18T09:29:47.185Z,11.67
2017-10-18T09:32:14.838Z,12.10
2017-10-18T09:34:42.530Z,11.60
2017-10-18T09:37:10.222Z,12.53
2017-10-18T09:39:37.912Z,12.63
2017-10-18T09:42:05.588Z,13.40
2017-10-18T09:44:33.305Z,13.23
2017-10-18T09:47:00.987Z,11.30
2017-10-18T09:49:28.671Z,11.70
2017-10-18T09:51:56.271Z,11.57
2017-10-18T09:54:23.977Z,11.13
2017-10-18T09:56:51.635Z,10.47
2017-10-18T09:59:19.317Z,10.03
2017-10-18T10:01:47.007Z,8.50
2017-10-18T10:04:14.620Z,7.50
2017-10-18T10:06:42.318Z,7.70
2017-10-18T10:09:09.978Z,7.40
2017-10-18T10:11:37.715Z,8.43
2017-10-18T10:14:05.383Z,7.97
2017-10-18T10:16:33.027Z,7.80
2017-10-18T10:19:00.782Z,7.80
2017-10-18T10:21:28.400Z,7.10
2017-10-18T10:23:55.980Z,7.93
2017-10-18T10:26:23.589Z,7.63
2017-10-18T10:28:51.178Z,5.40
2017-10-18T10:31:18.873Z,5.20
2017-10-18T10:33:46.461Z,4.50
2017-10-18T10:36:14.129Z,4.70
2017-10-18T10:38:41.745Z,4.47
2017-10-18T10:41:09.430Z,5.17
2017-10-18T10:43:37.049Z,3.90
2017-10-18T10:46:04.699Z,4.33
2017-10-18T10:48:32.343Z,3.67
2017-10-18T10:51:00.166Z,4.20
2017-10-18T10:53:27.769Z,3.50
2017-10-18T10:55:55.398Z,3.03
2017-10-18T10:58:23.007Z,3.57
2017-10-18T11:00:50.702Z,4.33
2017-10-18T11:03:18.307Z,5.30
2017-10-18T11:05:45.956Z,4.77
2017-10-18T11:08:13.539Z,5.20
2017-10-18T11:10:41.201Z,6.30
2017-10-18T11:13:08.787Z,6.90
2017-10-18T11:15:36.442Z,5.80
2017-10-18T11:18:04.148Z,7.30
2017-10-18T11:20:31.814Z,6.57
2017-10-18T11:22:59.537Z,6.27
2017-10-18T11:25:27.139Z,7.00
2017-10-18T11:27:54.864Z,7.07
2017-10-18T11:30:22.522Z,6.17
2017-10-18T11:32:50.224Z,7.50
2017-10-18T11:35:17.868Z,7.43
2017-10-18T11:37:45.562Z,7.67
2017-10-18T11:40:13.227Z,7.60
2017-10-18T11:42:40.895Z,6.07
2017-10-18T11:45:08.501Z,6.60
2017-10-18T11:47:36.116Z,6.10
2017-10-18T11:50:03.703Z,5.10
2017-10-18T11:52:31.336Z,4.67
2017-10-18T11:54:58.930Z,4.10
2017-10-18T11:57:26.514Z,4.60
2017-10-18T11:59:54.189Z,4.27
2017-10-18T12:02:21.846Z,3.90
2017-10-18T12:04:49.572Z,3.70
2017-10-18T12:07:17.226Z,3.87
2017-10-18T12:09:44.870Z,3.27
2017-10-18T12:12:12.525Z,3.37
2017-10-18T12:14:40.218Z,4.30
2017-10-18T12:17:07.888Z,4.10
2017-10-18T12:19:35.506Z,3.30
2017-10-18T12:22:03.158Z,3.90
2017-10-18T12:24:30.890Z,4.20
2017-10-18T12:26:58.573Z,3.37
2017-10-18T12:29:26.270Z,4.03
2017-10-18T12:31:53.912Z,3.50
2017-10-18T12:34:21.610Z,4.27
2017-10-18T12:36:49.268Z,4.10
2017-10-18T12:39:16.960Z,3.60
2017-10-18T12:41:44.620Z,4.57
2017-10-18T12:44:12.812Z,4.20
2017-10-18T12:46:40.498Z,4.73
2017-10-18T12:49:08.197Z,4.83
2017-10-18T12:51:35.848Z,3.93
2017-10-18T12:54:03.547Z,4.80
2017-10-18T12:56:31.130Z,3.83
2017-10-18T12:58:58.742Z,4.80
2017-10-18T13:01:26.418Z,4.27
2017-10-18T13:03:54.133Z,4.90
2017-10-18T13:06:21.794Z,4.50
2017-10-18T13:08:49.496Z,4.27
2017-10-18T13:11:17.163Z,4.70
2017-10-18T13:13:44.802Z,5.20
2017-10-18T13:16:13.464Z,5.43
2017-10-18T13:18:41.112Z,4.60
2017-10-18T13:21:08.809Z,5.20
2017-10-18T13:23:36.469Z,6.27
2017-10-18T13:26:04.163Z,5.00
2017-10-18T13:28:31.803Z,5.80
2017-10-18T13:30:59.488Z,5.40
2017-10-18T13:33:27.147Z,4.60
2017-10-18T13:35:54.840Z,4.90
2017-10-18T13:38:22.531Z,4.50
2017-10-18T13:40:50.218Z,4.47
2017-10-18T13:43:17.931Z,4.03
2017-10-18T13:45:45.617Z,4.50
2017-10-18T13:48:13.286Z,4.47
2017-10-18T13:50:40.999Z,4.83
2017-10-18T13:53:08.646Z,4.37
2017-10-18T13:55:36.330Z,4.67
2017-10-18T13:58:03.982Z,4.50
2017-10-18T14:00:31.665Z,5.10
2017-10-18T14:02:59.333Z,4.40
2017-10-18T14:05:27.024Z,4.57
2017-10-18T14:07:54.704Z,4.67
2017-10-18T14:10:22.327Z,4.40
2017-10-18T14:12:49.954Z,4.87
2017-10-18T14:15:17.581Z,4.50
2017-10-18T14:17:45.191Z,5.00
2017-10-18T14:20:12.810Z,5.40
2017-10-18T14:22:40.396Z,4.63
2017-10-18T14:25:08.022Z,4.70
2017-10-18T14:27:35.629Z,5.20
2017-10-18T14:30:03.261Z,5.37
2017-10-18T14:32:30.845Z,4.87
2017-10-18T14:34:58.575Z,5.10
2017-10-18T14:37:26.219Z,6.50
2017-10-18T14:39:53.938Z,6.53
2017-10-18T14:42:21.541Z,6.00
2017-10-18T14:44:49.147Z,5.57
2017-10-18T14:47:16.775Z,6.63
2017-10-18T14:49:44.376Z,6.00
2017-10-18T14:52:12.076Z,5.90
2017-10-18T14:54:39.668Z,5.50
2017-10-18T14:57:07.355Z,6.30
2017-10-18T14:59:35.018Z,6.40
2017-10-18T15:02:02.793Z,6.50
2017-10-18T15:04:30.456Z,5.30
2017-10-18T15:06:58.131Z,5.97
2017-10-18T15:09:25.742Z,8.10
2017-10-18T15:11:53.440Z,7.60
2017-10-18T15:14:21.034Z,6.87
2017-10-18T15:16:48.752Z,6.43
2017-10-18T15:19:16.344Z,6.60
2017-10-18T15:21:44.028Z,8.20
2017-10-18T15:24:11.650Z,6.43
2017-10-18T15:26:39.330Z,6.87
2017-10-18T15:29:07.028Z,6.10
2017-10-18T15:31:34.772Z,5.40
2017-10-18T15:34:02.366Z,6.00
2017-10-18T15:36:30.150Z,5.77
2017-10-18T15:38:57.779Z,5.10
2017-10-18T15:41:25.390Z,5.80
2017-10-18T15:43:52.982Z,5.50
2017-10-18T15:46:20.606Z,6.03
2017-10-18T15:48:48.291Z,6.37
2017-10-18T15:51:15.983Z,5.40
2017-10-18T15:53:43.654Z,5.80
2017-10-18T15:56:11.297Z,4.87
2017-10-18T15:58:38.978Z,5.20
2017-10-18T16:01:06.657Z,5.87
2017-10-18T16:03:34.250Z,5.57
2017-10-18T16:06:01.875Z,5.33
2017-10-18T16:08:29.452Z,5.93
2017-10-18T16:10:57.122Z,5.00
2017-10-18T16:13:24.824Z,4.63
2017-10-18T16:15:52.751Z,4.97
2017-10-18T16:18:20.378Z,4.60
2017-10-18T16:20:47.957Z,5.80
2017-10-18T16:23:15.669Z,5.40
2017-10-18T16:25:43.313Z,5.60
2017-10-18T16:28:10.930Z,5.43
2017-10-18T16:30:38.575Z,5.70
2017-10-18T16:33:06.312Z,5.83
2017-10-18T16:35:33.962Z,6.13
2017-10-18T16:38:01.671Z,5.83
2017-10-18T16:40:29.260Z,7.10
2017-10-18T16:42:56.938Z,6.37
2017-10-18T16:45:24.562Z,6.60
2017-10-18T16:47:52.211Z,8.20
2017-10-18T16:50:19.903Z,7.33
2017-10-18T16:52:47.532Z,7.70
2017-10-18T16:55:15.127Z,7.30
2017-10-18T16:57:42.817Z,7.80
2017-10-18T17:00:10.441Z,7.90
2017-10-18T17:02:38.036Z,8.37
2017-10-18T17:05:05.682Z,9.07
2017-10-18T17:07:33.269Z,8.37
2017-10-18T17:10:00.904Z,7.97
2017-10-18T17:12:28.515Z,7.60
2017-10-18T17:14:56.238Z,7.00
2017-10-18T17:17:23.815Z,6.47
2017-10-18T17:19:51.446Z,6.30
2017-10-18T17:22:19.029Z,7.20
2017-10-18T17:24:46.691Z,7.33
2017-10-18T17:27:14.278Z,6.27
2017-10-18T17:29:43.975Z,5.83
2017-10-18T17:32:12.154Z,5.90
2017-10-18T17:34:39.807Z,6.73
2017-10-18T17:37:07.401Z,6.23
2017-10-18T17:39:35.050Z,6.40
2017-10-18T17:42:02.670Z,6.53
2017-10-18T17:44:30.335Z,6.23
2017-10-18T17:46:58.851Z,6.73
2017-10-18T17:49:26.479Z,7.70
2017-10-18T17:51:54.074Z,7.00
2017-10-18T17:54:21.705Z,6.70
2017-10-18T17:56:49.286Z,6.83
2017-10-18T17:59:16.904Z,7.17
2017-10-18T18:01:44.559Z,7.20
2017-10-18T18:04:12.186Z,7.50
2017-10-18T18:06:39.961Z,7.40
2017-10-18T18:09:07.705Z,6.33
2017-10-18T18:11:35.307Z,7.00
2017-10-18T18:14:03.000Z,6.90
2017-10-18T18:16:30.627Z,7.20
2017-10-18T18:18:58.260Z,7.13
2017-10-18T18:21:26.779Z,6.00
2017-10-18T18:23:55.906Z,6.70
2017-10-18T18:26:28.311Z,7.23
2017-10-18T18:28:56.006Z,7.33
2017-10-18T18:31:23.599Z,8.20
2017-10-18T18:33:51.198Z,7.67
2017-10-18T18:36:18.831Z,7.67
2017-10-18T18:38:46.420Z,7.23
2017-10-18T18:41:14.066Z,7.63
2017-10-18T18:43:41.718Z,7.00
2017-10-18T18:46:09.369Z,6.80
2017-10-18T18:48:36.956Z,7.10
2017-10-18T18:51:04.605Z,6.50
2017-10-18T18:53:32.194Z,7.30
2017-10-18T18:55:59.897Z,7.50
2017-10-18T18:58:27.490Z,7.53
2017-10-18T19:00:55.136Z,7.77
2017-10-18T19:03:22.752Z,7.53
2017-10-18T19:05:50.358Z,7.07
2017-10-18T19:08:17.973Z,7.60
2017-10-18T19:10:45.633Z,7.30
2017-10-18T19:13:13.307Z,7.10
2017-10-18T19:15:41.010Z,7.50
2017-10-18T19:18:09.682Z,7.63
2017-10-18T19:20:37.324Z,7.30
2017-10-18T19:23:04.945Z,7.97
2017-10-18T19:25:32.642Z,7.93
2017-10-18T19:28:00.386Z,7.40
2017-10-18T19:30:28.045Z,7.40
2017-10-18T19:32:55.758Z,7.60
2017-10-18T19:35:23.449Z,7.53
2017-10-18T19:37:51.195Z,7.53
2017-10-18T19:40:18.881Z,7.53
2017-10-18T19:42:46.565Z,8.03
2017-10-18T19:45:14.318Z,8.40
2017-10-18T19:47:43.870Z,7.57
2017-10-18T19:50:11.698Z,8.70
2017-10-18T19:52:39.508Z,9.30
2017-10-18T19:55:07.220Z,9.50
2017-10-18T19:57:34.961Z,10.03
2017-10-18T20:00:02.654Z,11.40
2017-10-18T20:02:31.506Z,9.80
2017-10-18T20:04:59.152Z,10.23
2017-10-18T20:07:26.779Z,8.93
2017-10-18T20:09:54.427Z,9.17
2017-10-18T20:12:22.051Z,7.73
2017-10-18T20:14:49.665Z,7.60
2017-10-18T20:17:17.319Z,7.60
2017-10-18T20:19:44.934Z,7.70
2017-10-18T20:22:12.556Z,8.10
2017-10-18T20:24:40.163Z,7.27
2017-10-18T20:27:07.767Z,7.53
2017-10-18T20:29:35.373Z,7.97
2017-10-18T20:32:02.949Z,8.50
2017-10-18T20:34:30.575Z,7.40
2017-10-18T20:36:58.167Z,8.80
2017-10-18T20:39:25.853Z,8.00
2017-10-18T20:41:53.455Z,7.37
2017-10-18T20:44:21.136Z,7.50
2017-10-18T20:46:48.712Z,7.63
2017-10-18T20:49:16.399Z,7.70
2017-10-18T20:51:44.049Z,6.87
2017-10-18T20:54:11.714Z,8.10
2017-10-18T20:56:39.365Z,7.03
2017-10-18T20:59:06.990Z,7.67
2017-10-18T21:01:34.569Z,7.70
2017-10-18T21:04:02.206Z,6.90
2017-10-18T21:06:29.863Z,7.03
2017-10-18T21:08:57.461Z,6.20
2017-10-18T21:11:25.138Z,7.40
2017-10-18T21:13:52.802Z,7.90
2017-10-18T21:16:21.316Z,8.07
2017-10-18T21:18:48.987Z,8.60
2017-10-18T21:21:16.670Z,8.90
2017-10-18T21:23:44.323Z,8.60
2017-10-18T21:26:12.008Z,8.00
2017-10-18T21:28:39.667Z,7.30
2017-10-18T21:31:07.342Z,8.97
2017-10-18T21:33:34.990Z,9.13
2017-10-18T21:36:02.676Z,8.53
2017-10-18T21:38:30.325Z,8.90
2017-10-18T21:40:58.247Z,8.60
2017-10-18T21:43:26.386Z,8.17
2017-10-18T21:45:54.101Z,8.63
2017-10-18T21:48:21.870Z,9.27
2017-10-18T21:50:49.639Z,8.80
2017-10-18T21:53:17.377Z,8.57
2017-10-18T21:55:45.123Z,9.17
2017-10-18T21:58:13.222Z,8.13
2017-10-18T22:00:41.712Z,7.90
2017-10-18T22:03:09.436Z,8.50
2017-10-18T22:05:37.484Z,10.07
2017-10-18T22:08:05.260Z,9.53
2017-10-18T22:10:34.288Z,8.87
2017-10-18T22:13:02.070Z,8.57
2017-10-18T22:15:29.761Z,9.10
2017-10-18T22:17:57.943Z,9.57
2017-10-18T22:20:25.669Z,7.80
2017-10-18T22:22:53.629Z,8.00
2017-10-18T22:25:21.773Z,7.53
2017-10-18T22:27:49.818Z,7.87
2017-10-18T22:30:17.879Z,8.10
2017-10-18T22:32:45.864Z,9.73
2017-10-18T22:35:13.509Z,10.80
2017-10-18T22:37:41.264Z,10.50
2017-10-18T22:40:09.226Z,9.50
2017-10-18T22:42:37.434Z,9.87
2017-10-18T22:45:05.239Z,9.13
2017-10-18T22:47:33.012Z,9.63
2017-10-18T22:50:01.089Z,9.33
2017-10-18T22:52:28.844Z,9.20
2017-10-18T22:54:56.494Z,7.80
2017-10-18T22:57:24.868Z,9.10
2017-10-18T22:59:52.666Z,10.60
2017-10-18T23:02:20.471Z,9.90
2017-10-18T23:04:48.610Z,10.00
2017-10-18T23:07:16.816Z,11.57
2017-10-18T23:09:44.455Z,10.50
2017-10-18T23:12:12.131Z,9.80
2017-10-18T23:14:40.719Z,11.63
2017-10-18T23:17:09.726Z,11.17
2017-10-18T23:19:37.770Z,10.10
2017-10-18T23:22:06.457Z,9.90
2017-10-18T23:24:34.482Z,9.40
2017-10-18T23:27:02.415Z,9.67
2017-10-18T23:29:30.383Z,9.90
2017-10-18T23:31:58.039Z,9.60
2017-10-18T23:34:25.741Z,10.00
2017-10-18T23:36:53.378Z,9.03
2017-10-18T23:39:21.596Z,10.20
2017-10-18T23:41:49.666Z,10.63
2017-10-18T23:44:18.301Z,9.03
2017-10-18T23:46:47.017Z,8.53
2017-10-18T23:49:14.818Z,9.23
2017-10-18T23:51:42.583Z,10.80
2017-10-18T23:54:10.370Z,11.40
2017-10-18T23:56:38.332Z,11.70
2017-10-18T23:59:06.103Z,10.90
